createdAt,value
2022-08-29T00:00:31.062Z,13.58
2022-08-29T00:03:00.257Z,13.56
2022-08-29T00:05:32.995Z,13.44
2022-08-29T00:08:01.770Z,13.43
2022-08-29T00:10:29.870Z,13.37
2022-08-29T00:12:57.765Z,13.22
2022-08-29T00:15:26.059Z,13.43
2022-08-29T00:17:52.790Z,13.40
2022-08-29T00:20:22.972Z,13.50
2022-08-29T00:22:58.515Z,13.29
2022-08-29T00:25:25.689Z,13.44
2022-08-29T00:27:52.524Z,13.31
2022-08-29T00:30:20.447Z,13.29
2022-08-29T00:32:47.366Z,13.33
2022-08-29T00:35:17.272Z,13.27
2022-08-29T00:37:44.506Z,13.34
2022-08-29T00:40:14.971Z,13.46
2022-08-29T00:42:41.896Z,13.48
2022-08-29T00:45:10.659Z,13.33
2022-08-29T00:47:40.789Z,13.25
2022-08-29T00:50:09.089Z,13.28
2022-08-29T00:52:43.548Z,13.20
2022-08-29T00:55:14.071Z,13.24
2022-08-29T00:57:43.510Z,13.14
2022-08-29T01:00:12.088Z,13.09
2022-08-29T01:02:40.811Z,13.15
2022-08-29T01:05:11.783Z,13.16
2022-08-29T01:07:40.857Z,13.09
2022-08-29T01:10:13.515Z,13.00
2022-08-29T01:12:40.834Z,13.09
2022-08-29T01:15:10.492Z,13.16
2022-08-29T01:17:42.581Z,12.99
2022-08-29T01:20:14.662Z,12.94
2022-08-29T01:23:10.017Z,12.78
2022-08-29T01:25:39.914Z,12.90
2022-08-29T01:28:12.140Z,12.90
2022-08-29T01:30:58.006Z,12.93
2022-08-29T01:33:24.850Z,12.77
2022-08-29T01:35:51.947Z,12.58
2022-08-29T01:38:27.806Z,12.51
2022-08-29T01:40:56.635Z,12.55
2022-08-29T01:43:23.403Z,12.54
2022-08-29T01:45:50.639Z,12.57
2022-08-29T01:48:18.890Z,12.73
2022-08-29T01:50:46.365Z,12.78
2022-08-29T01:53:13.816Z,12.89
2022-08-29T01:55:40.710Z,12.91
2022-08-29T01:58:07.747Z,12.93
2022-08-29T02:00:36.033Z,12.90
2022-08-29T02:03:03.509Z,12.90
2022-08-29T02:05:30.900Z,12.87
2022-08-29T02:07:58.217Z,12.83
2022-08-29T02:10:25.114Z,12.83
2022-08-29T02:12:53.614Z,12.63
2022-08-29T02:15:21.583Z,12.55
2022-08-29T02:17:48.638Z,12.41
2022-08-29T02:20:15.427Z,12.49
2022-08-29T02:22:42.423Z,12.42
2022-08-29T02:25:29.736Z,12.48
2022-08-29T02:27:58.700Z,12.38
2022-08-29T02:30:25.816Z,12.41
2022-08-29T02:32:52.762Z,12.28
2022-08-29T02:35:19.633Z,12.29
2022-08-29T02:37:46.349Z,12.24
2022-08-29T02:40:13.095Z,12.22
2022-08-29T02:42:40.130Z,12.28
2022-08-29T02:45:07.290Z,12.24
2022-08-29T02:47:36.636Z,12.49
2022-08-29T02:50:09.412Z,12.19
2022-08-29T02:52:40.077Z,12.24
2022-08-29T02:55:08.368Z,12.13
2022-08-29T02:57:35.106Z,12.11
2022-08-29T03:00:02.033Z,11.94
2022-08-29T03:02:28.795Z,11.81
2022-08-29T03:04:55.478Z,11.79
2022-08-29T03:07:22.212Z,11.80
2022-08-29T03:09:48.896Z,11.85
2022-08-29T03:12:15.605Z,11.86
2022-08-29T03:14:42.302Z,11.74
2022-08-29T03:17:09.014Z,11.64
2022-08-29T03:19:37.321Z,11.75
2022-08-29T03:22:04.408Z,11.68
2022-08-29T03:24:31.531Z,11.65
2022-08-29T03:26:58.743Z,11.63
2022-08-29T03:29:26.239Z,11.68
2022-08-29T03:31:53.963Z,11.70
2022-08-29T03:34:20.788Z,11.46
2022-08-29T03:36:47.498Z,11.54
2022-08-29T03:39:14.262Z,11.48
2022-08-29T03:41:41.005Z,11.62
2022-08-29T03:44:07.936Z,11.50
2022-08-29T03:46:36.290Z,11.58
2022-08-29T03:49:03.277Z,11.42
2022-08-29T03:51:31.701Z,11.53
2022-08-29T03:53:58.478Z,11.56
2022-08-29T03:56:25.957Z,11.66
2022-08-29T03:58:53.650Z,11.61
2022-08-29T04:01:24.459Z,11.48
2022-08-29T04:03:51.326Z,11.55
2022-08-29T04:06:18.600Z,11.40
2022-08-29T04:08:47.427Z,11.31
2022-08-29T04:11:15.101Z,11.35
2022-08-29T04:13:42.271Z,11.39
2022-08-29T04:16:14.826Z,11.56
2022-08-29T04:18:42.020Z,11.56
2022-08-29T04:21:08.891Z,11.55
2022-08-29T04:23:37.371Z,11.57
2022-08-29T04:26:31.290Z,11.65
2022-08-29T04:28:55.005Z,11.65
2022-08-29T04:31:22.314Z,11.68
2022-08-29T04:33:50.286Z,11.83
2022-08-29T04:36:17.145Z,11.88
2022-08-29T04:38:43.895Z,11.90
2022-08-29T04:41:15.028Z,11.94
2022-08-29T04:43:42.682Z,11.75
2022-08-29T04:46:16.346Z,11.81
2022-08-29T04:48:52.641Z,11.56
2022-08-29T04:51:19.725Z,11.45
2022-08-29T04:53:46.834Z,11.44
2022-08-29T04:56:14.100Z,11.63
2022-08-29T04:58:44.137Z,11.58
2022-08-29T05:01:19.436Z,11.69
2022-08-29T05:03:46.322Z,11.66
2022-08-29T05:06:14.879Z,11.70
2022-08-29T05:08:43.061Z,11.76
2022-08-29T05:11:13.006Z,11.68
2022-08-29T05:13:39.699Z,11.76
2022-08-29T05:16:10.973Z,11.88
2022-08-29T05:18:38.515Z,11.80
2022-08-29T05:21:06.254Z,11.75
2022-08-29T05:23:33.229Z,11.76
2022-08-29T05:26:02.484Z,11.88
2022-08-29T05:28:30.440Z,11.88
2022-08-29T05:30:57.680Z,11.90
2022-08-29T05:33:24.481Z,11.96
2022-08-29T05:35:51.210Z,11.83
2022-08-29T05:38:18.048Z,12.02
2022-08-29T05:40:44.903Z,12.06
2022-08-29T05:43:12.115Z,12.20
2022-08-29T05:45:39.076Z,12.15
2022-08-29T05:48:08.042Z,12.32
2022-08-29T05:50:44.621Z,12.65
2022-08-29T05:53:13.253Z,12.73
2022-08-29T05:55:44.505Z,12.88
2022-08-29T05:58:12.160Z,12.93
2022-08-29T06:00:41.672Z,12.93
2022-08-29T06:03:09.823Z,12.73
2022-08-29T06:05:37.281Z,13.00
2022-08-29T06:08:04.494Z,12.94
2022-08-29T06:10:31.294Z,12.72
2022-08-29T06:12:58.043Z,12.75
2022-08-29T06:15:28.503Z,12.86
2022-08-29T06:17:55.491Z,13.09
2022-08-29T06:20:22.286Z,13.00
2022-08-29T06:22:49.050Z,12.92
2022-08-29T06:25:38.003Z,13.05
2022-08-29T06:28:02.922Z,12.98
2022-08-29T06:30:32.094Z,13.20
2022-08-29T06:32:59.659Z,13.26
2022-08-29T06:35:26.442Z,13.24
2022-08-29T06:37:53.139Z,13.17
2022-08-29T06:40:20.063Z,13.45
2022-08-29T06:42:47.028Z,13.57
2022-08-29T06:45:13.803Z,13.72
2022-08-29T06:47:40.606Z,13.75
2022-08-29T06:50:07.833Z,13.72
2022-08-29T06:52:35.714Z,13.60
2022-08-29T06:55:03.028Z,13.43
2022-08-29T06:57:29.932Z,13.44
2022-08-29T07:00:12.426Z,13.43
2022-08-29T07:02:47.743Z,13.62
2022-08-29T07:05:20.274Z,13.85
2022-08-29T07:07:47.023Z,13.74
2022-08-29T07:10:18.673Z,14.01
2022-08-29T07:12:49.930Z,14.06
2022-08-29T07:15:16.826Z,13.97
2022-08-29T07:17:45.845Z,14.04
2022-08-29T07:20:12.887Z,14.14
2022-08-29T07:22:39.712Z,14.31
2022-08-29T07:25:08.677Z,14.29
2022-08-29T07:27:35.873Z,14.31
2022-08-29T07:30:06.626Z,14.41
2022-08-29T07:32:49.347Z,14.35
2022-08-29T07:35:29.626Z,14.56
2022-08-29T07:38:01.877Z,14.89
2022-08-29T07:40:36.645Z,14.68
2022-08-29T07:43:06.227Z,14.59
2022-08-29T07:45:37.849Z,14.57
2022-08-29T07:48:08.076Z,14.63
2022-08-29T07:50:36.861Z,14.78
2022-08-29T07:53:03.560Z,15.10
2022-08-29T07:55:30.394Z,15.00
2022-08-29T07:57:57.109Z,15.02
2022-08-29T08:00:23.852Z,15.17
2022-08-29T08:02:51.488Z,15.17
2022-08-29T08:05:18.538Z,15.40
2022-08-29T08:07:45.320Z,15.25
2022-08-29T08:10:16.429Z,15.09
2022-08-29T08:12:44.090Z,15.28
2022-08-29T08:15:11.094Z,15.67
2022-08-29T08:17:42.067Z,15.59
2022-08-29T08:20:11.796Z,15.51
2022-08-29T08:22:38.533Z,15.58
2022-08-29T08:25:06.447Z,15.55
2022-08-29T08:27:34.629Z,15.54
2022-08-29T08:30:05.230Z,15.73
2022-08-29T08:32:32.867Z,15.99
2022-08-29T08:34:59.902Z,16.06
2022-08-29T08:37:27.861Z,15.94
2022-08-29T08:39:59.023Z,15.82
2022-08-29T08:42:42.314Z,15.77
2022-08-29T08:45:14.398Z,15.89
2022-08-29T08:47:46.250Z,16.07
2022-08-29T08:50:21.958Z,16.17
2022-08-29T08:53:31.010Z,16.23
2022-08-29T08:56:00.034Z,16.22
2022-08-29T08:58:48.946Z,16.45
2022-08-29T09:01:26.907Z,16.53
2022-08-29T09:04:42.518Z,16.63
2022-08-29T09:08:04.585Z,16.48
2022-08-29T09:11:08.336Z,16.61
2022-08-29T09:14:08.691Z,16.34
2022-08-29T09:17:05.981Z,16.47
2022-08-29T09:20:04.166Z,16.54
2022-08-29T09:23:06.488Z,16.72
2022-08-29T09:26:00.914Z,16.65
2022-08-29T09:28:50.093Z,16.66
2022-08-29T09:31:51.021Z,16.61
2022-08-29T09:35:04.308Z,16.74
2022-08-29T09:37:44.262Z,16.62
2022-08-29T09:40:56.585Z,16.83
2022-08-29T09:43:28.605Z,16.60
2022-08-29T09:46:10.757Z,16.60
2022-08-29T09:52:25.282Z,16.97
2022-08-29T09:58:42.972Z,16.62
2022-08-29T10:01:18.425Z,16.97
2022-08-29T10:04:08.798Z,16.71
2022-08-29T10:06:46.230Z,16.60
2022-08-29T10:12:19.623Z,16.85
2022-08-29T10:14:53.777Z,16.96
2022-08-29T10:40:36.649Z,16.80
2022-08-29T10:43:23.659Z,17.07
2022-08-29T10:46:35.653Z,17.53
2022-08-29T10:49:16.546Z,17.56
2022-08-29T10:52:03.819Z,17.85
2022-08-29T10:54:38.430Z,17.93
2022-08-29T10:57:06.079Z,18.11
2022-08-29T10:59:53.195Z,18.18
2022-08-29T11:02:37.973Z,18.15
2022-08-29T11:05:13.792Z,17.98
2022-08-29T11:07:48.438Z,17.95
2022-08-29T11:10:20.517Z,18.18
2022-08-29T11:13:05.771Z,18.31
2022-08-29T11:15:40.742Z,18.65
2022-08-29T11:18:28.161Z,18.55
2022-08-29T11:27:21.908Z,18.68
2022-08-29T11:29:57.722Z,18.63
2022-08-29T11:36:07.521Z,18.29
2022-08-29T11:38:53.351Z,18.28
2022-08-29T11:58:46.386Z,18.11
2022-08-29T12:21:18.894Z,18.06
2022-08-29T12:24:17.576Z,18.37
2022-08-29T12:26:48.942Z,18.55
2022-08-29T12:29:31.944Z,18.59
2022-08-29T12:32:40.057Z,18.53
2022-08-29T12:35:39.674Z,18.79
2022-08-29T12:38:32.962Z,18.82
2022-08-29T12:57:18.810Z,18.52
2022-08-29T12:59:48.072Z,18.75
2022-08-29T13:05:36.212Z,18.96
2022-08-29T13:08:11.082Z,19.08
2022-08-29T13:11:11.480Z,19.30
2022-08-29T13:13:38.989Z,19.69
2022-08-29T13:16:08.698Z,19.61
2022-08-29T13:18:53.928Z,19.52
2022-08-29T13:21:27.206Z,19.44
2022-08-29T13:24:02.600Z,19.64
2022-08-29T13:26:32.607Z,19.73
2022-08-29T13:29:12.572Z,19.85
2022-08-29T13:34:21.482Z,19.71
2022-08-29T13:37:17.227Z,19.86
2022-08-29T13:39:48.695Z,20.07
2022-08-29T13:42:25.555Z,20.25
2022-08-29T13:45:02.574Z,20.70
2022-08-29T13:47:33.219Z,21.13
2022-08-29T13:50:02.826Z,20.96
2022-08-29T13:52:31.586Z,20.76
2022-08-29T13:54:59.599Z,20.97
2022-08-29T13:57:29.289Z,20.93
2022-08-29T13:59:57.258Z,21.44
2022-08-29T14:02:25.272Z,21.65
2022-08-29T14:04:52.176Z,21.55
2022-08-29T14:07:25.313Z,21.70
2022-08-29T14:09:52.009Z,21.71
2022-08-29T14:12:19.326Z,21.65
2022-08-29T14:14:48.272Z,22.13
2022-08-29T14:17:18.151Z,22.23
2022-08-29T14:19:46.621Z,22.37
2022-08-29T14:22:14.008Z,22.14
2022-08-29T14:24:41.382Z,21.92
2022-08-29T14:27:08.682Z,21.63
2022-08-29T14:29:36.496Z,21.44
2022-08-29T14:32:03.663Z,21.24
2022-08-29T14:34:32.287Z,20.93
2022-08-29T14:37:02.719Z,21.06
2022-08-29T14:39:29.439Z,21.08
2022-08-29T14:41:56.328Z,21.06
2022-08-29T14:44:23.651Z,20.88
2022-08-29T14:46:50.980Z,20.62
2022-08-29T14:49:18.516Z,20.56
2022-08-29T14:51:45.532Z,20.68
2022-08-29T14:54:12.791Z,20.94
2022-08-29T14:56:49.532Z,20.99
2022-08-29T14:59:18.319Z,20.71
2022-08-29T15:01:51.076Z,20.81
2022-08-29T15:04:21.733Z,20.90
2022-08-29T15:07:01.999Z,21.52
2022-08-29T15:09:28.761Z,22.23
2022-08-29T15:11:55.469Z,22.03
2022-08-29T15:14:22.768Z,21.72
2022-08-29T15:16:49.517Z,21.55
2022-08-29T15:20:10.680Z,21.48
2022-08-29T15:22:03.644Z,21.36
2022-08-29T15:24:30.459Z,21.38
2022-08-29T15:26:57.940Z,22.23
2022-08-29T15:29:52.830Z,23.14
2022-08-29T15:32:29.349Z,23.69
2022-08-29T15:34:56.125Z,23.73
2022-08-29T15:37:23.478Z,23.21
2022-08-29T15:39:52.342Z,22.72
2022-08-29T15:42:26.611Z,22.24
2022-08-29T15:44:53.288Z,21.94
2022-08-29T15:47:21.912Z,21.67
2022-08-29T15:49:53.814Z,21.50
2022-08-29T15:52:20.667Z,21.32
2022-08-29T15:54:47.357Z,21.28
2022-08-29T15:57:14.105Z,21.20
2022-08-29T15:59:57.467Z,21.09
2022-08-29T16:02:25.231Z,20.95
2022-08-29T16:04:56.431Z,20.90
2022-08-29T16:07:28.857Z,20.90
2022-08-29T16:09:57.238Z,20.79
2022-08-29T16:12:23.952Z,20.79
2022-08-29T16:14:59.670Z,20.76
2022-08-29T16:17:29.886Z,20.68
2022-08-29T16:20:34.013Z,20.66
2022-08-29T16:23:23.857Z,20.66
2022-08-29T16:25:50.561Z,20.62
2022-08-29T16:28:17.557Z,20.67
2022-08-29T16:30:49.784Z,20.75
2022-08-29T16:33:16.601Z,20.85
2022-08-29T16:35:43.782Z,20.79
2022-08-29T16:38:11.210Z,20.74
2022-08-29T16:40:38.373Z,20.68
2022-08-29T16:43:05.790Z,20.64
2022-08-29T16:45:33.107Z,20.57
2022-08-29T16:48:00.237Z,20.63
2022-08-29T16:50:27.473Z,20.60
2022-08-29T16:52:54.369Z,20.64
2022-08-29T16:55:21.369Z,20.79
2022-08-29T16:58:08.084Z,21.05
2022-08-29T17:00:34.975Z,21.25
2022-08-29T17:03:02.057Z,21.39
2022-08-29T17:05:29.027Z,21.52
2022-08-29T17:07:55.728Z,21.59
2022-08-29T17:10:22.704Z,21.68
2022-08-29T17:12:51.865Z,21.59
2022-08-29T17:15:18.781Z,21.42
2022-08-29T17:17:45.522Z,21.26
2022-08-29T17:20:13.153Z,21.07
2022-08-29T17:22:40.764Z,20.88
2022-08-29T17:25:08.121Z,20.72
2022-08-29T17:27:34.832Z,20.58
2022-08-29T17:30:03.690Z,20.43
2022-08-29T17:32:30.653Z,20.33
2022-08-29T17:34:57.366Z,20.19
2022-08-29T17:37:24.522Z,20.11
2022-08-29T17:39:51.289Z,19.99
2022-08-29T17:42:18.261Z,19.97
2022-08-29T17:44:46.448Z,19.87
2022-08-29T17:47:22.151Z,19.94
2022-08-29T17:49:49.268Z,20.07
2022-08-29T17:52:16.062Z,20.00
2022-08-29T17:54:42.980Z,20.05
2022-08-29T17:57:09.773Z,19.96
2022-08-29T17:59:37.404Z,19.76
2022-08-29T18:02:05.252Z,19.62
2022-08-29T18:04:32.486Z,19.58
2022-08-29T18:07:06.027Z,19.40
2022-08-29T18:09:38.372Z,19.34
2022-08-29T18:12:10.910Z,19.23
2022-08-29T18:14:41.653Z,19.13
2022-08-29T18:17:11.559Z,19.02
2022-08-29T18:19:38.923Z,18.96
2022-08-29T18:22:16.760Z,18.88
2022-08-29T18:24:43.888Z,18.80
2022-08-29T18:27:10.760Z,18.75
2022-08-29T18:29:40.133Z,18.61
2022-08-29T18:32:10.944Z,18.59
2022-08-29T18:34:46.014Z,18.42
2022-08-29T18:37:22.645Z,18.27
2022-08-29T18:39:49.656Z,18.07
2022-08-29T18:42:36.752Z,18.07
2022-08-29T18:45:04.938Z,17.98
2022-08-29T18:47:31.666Z,18.00
2022-08-29T18:50:17.097Z,18.04
2022-08-29T18:52:45.715Z,18.05
2022-08-29T18:55:16.021Z,18.23
2022-08-29T18:57:44.388Z,18.24
2022-08-29T19:21:05.946Z,17.57
2022-08-29T19:37:10.103Z,17.17
2022-08-29T19:49:47.107Z,17.00
2022-08-29T19:52:37.158Z,16.99
2022-08-29T20:18:32.544Z,16.91
2022-08-29T20:59:26.957Z,16.38
2022-08-29T21:14:18.309Z,16.08
2022-08-29T21:17:08.377Z,16.02
2022-08-29T21:19:47.599Z,16.11
2022-08-29T21:22:48.007Z,16.18
2022-08-29T21:25:21.889Z,16.15
2022-08-29T21:28:09.919Z,16.24
2022-08-29T21:31:36.494Z,16.26
2022-08-29T22:31:35.564Z,15.65
2022-08-29T22:34:26.695Z,15.60
2022-08-29T22:46:55.140Z,15.63
2022-08-29T22:53:41.959Z,15.44
2022-08-29T22:57:22.412Z,15.38
2022-08-29T23:00:27.909Z,15.44
2022-08-29T23:03:27.567Z,15.39
2022-08-29T23:07:23.129Z,15.25
2022-08-29T23:18:21.674Z,15.08
2022-08-29T23:32:40.823Z,14.96
2022-08-29T23:53:40.363Z,14.94
